EGSH METAR and TAF | Updated Today

EGSH METAR

Norwich International Airport

Observation time: 33 min. ago

EGSH 062020Z 19009KT 150V230 CAVOK 14/09 Q1025 NOSIG

Need help? Read our tutorial on how to read METARs or read the parsed version below.

Norwich International Airport (EGSH) METAR

  • Weather conditions on Thu, 06 Oct 2022 20:20:00 +0000 (33 min. ago):
  • Present conditions: Dry
  • Clouds: Clear skies
  • Visibility: Greater than 10 km
  • Wind: 190 degrees at 9 knots
  • Temperature: 14 celsius
  • Dew point: 9 celsius
  • Pressure: 1025 millibars
  • Remarks: None


Useful to know...

EGSH TAF

Norwich International Airport

TAF EGSH 061658Z 0618/0703 21012KT 9999 FEW035 PROB40 TEMPO 0618/0703 22015G25KT
Observation time: 3:55 hr. ago
Need help? Read our tutorial on how to read TAFs or read the parsed version below.

Parsed version of TAF for Norwich International Airport (EGSH)

  • From 06 October at 18:00 UTC, to day 07 of the month at 03:00 UTC
  • Clouds: A few at 1067 meters
  • Visibility: Greater than 10 km
  • Wind: 210 degrees at 12
  • Expected to arise temporarily, from 06 October at 18:00 UTC, to day 07 of the month at 03:00 UTC
    Probability of 40%
  • Wind: 220 degrees at 15